Time;durP1;ratioP1;P1;durP2;ratioP2;P2;SDS_P1;SDS_P2;PMS_P1;PMS_P2;Temp;Humidity;BMP_temperature;BMP_pressure;BME280_temperature;BME280_humidity;BME280_pressure;Samples;Min_cycle;Max_cycle;Signal;HPM_P1;HPM_P2
2024/04/02 03:52:12;;;;;;;2.20;1.17;;;1.90;99.90;;;;;;1933545;74;30157;-91
2024/04/02 03:55:01;;;;;;;1.57;1.23;;;1.90;99.90;;;;;;1893650;75;25255;-91
2024/04/02 04:05:29;;;;;;;1.50;1.40;;;1.70;99.90;;;;;;2002403;70;25219;-90
2024/04/02 04:08:21;;;;;;;5.20;1.27;;;1.70;99.90;;;;;;2004388;71;25642;-90
2024/04/02 04:11:10;;;;;;;2.13;1.73;;;1.70;99.90;;;;;;2007001;71;25223;-91
2024/04/02 04:14:01;;;;;;;1.53;1.43;;;1.60;99.90;;;;;;1996802;71;25761;-90
2024/04/02 04:16:51;;;;;;;2.00;1.77;;;1.70;99.90;;;;;;2009368;71;25692;-90
2024/04/02 04:19:40;;;;;;;3.67;2.10;;;1.60;99.90;;;;;;2009318;71;25817;-90
2024/04/02 04:22:32;;;;;;;3.63;1.53;;;1.70;99.90;;;;;;1986111;71;25199;-90
2024/04/02 04:25:23;;;;;;;1.73;1.40;;;1.70;99.90;;;;;;2007185;71;25254;-89
2024/04/02 04:28:30;;;;;;;1.80;1.53;;;1.60;99.90;;;;;;1928261;72;25517;-91
2024/04/02 04:58:12;;;;;;;3.63;1.83;;;1.70;99.90;;;;;;1900297;74;28190;-90
2024/04/02 05:03:50;;;;;;;1.93;1.70;;;1.60;99.90;;;;;;1960868;72;26974;-90
2024/04/02 05:07:00;;;;;;;6.03;2.70;;;1.60;99.90;;;;;;1939635;72;25154;-91
2024/04/02 05:09:51;;;;;;;5.30;2.47;;;1.60;99.90;;;;;;1900301;75;25171;-91
2024/04/02 05:12:41;;;;;;;3.00;2.17;;;1.60;99.90;;;;;;1871547;75;25170;-90
2024/04/02 05:15:33;;;;;;;3.27;1.90;;;1.60;99.90;;;;;;1854084;75;25963;-90
2024/04/02 05:18:22;;;;;;;3.87;2.30;;;1.50;99.90;;;;;;1848718;76;25738;-90
2024/04/02 05:21:18;;;;;;;2.70;2.33;;;1.60;99.90;;;;;;1917737;74;25310;-90
2024/04/02 05:24:09;;;;;;;4.33;1.67;;;1.50;99.90;;;;;;1914725;73;25220;-90
2024/04/02 05:26:59;;;;;;;4.63;2.13;;;1.60;99.90;;;;;;1851527;76;25217;-90
2024/04/02 05:29:52;;;;;;;4.60;2.70;;;1.50;99.90;;;;;;1858318;76;25253;-90
2024/04/02 05:32:44;;;;;;;2.97;1.77;;;1.50;99.90;;;;;;1859156;76;25262;-90
2024/04/02 05:35:36;;;;;;;3.67;2.20;;;1.50;99.90;;;;;;1894335;75;25756;-90
2024/04/02 05:38:26;;;;;;;3.23;2.00;;;1.50;99.90;;;;;;1894209;75;25176;-90
2024/04/02 06:01:06;;;;;;;1.53;1.43;;;1.40;99.90;;;;;;1951868;72;26913;-91
2024/04/02 06:03:58;;;;;;;2.73;2.00;;;1.40;99.90;;;;;;1949628;73;25203;-90
2024/04/02 06:06:48;;;;;;;3.63;1.40;;;1.40;99.90;;;;;;1951072;72;25244;-90
2024/04/02 06:09:41;;;;;;;1.70;1.50;;;1.40;99.90;;;;;;1977991;71;25199;-91
2024/04/02 06:12:36;;;;;;;1.93;1.30;;;1.40;99.90;;;;;;1957844;72;25183;-91
2024/04/02 06:15:45;;;;;;;2.10;1.30;;;1.50;99.90;;;;;;1959277;72;25194;-90
2024/04/02 19:12:19;;;;;;;2.00;1.60;;;1.00;99.90;;;;;;1839311;74;25398;-89
2024/04/02 19:18:08;;;;;;;1.40;1.30;;;0.90;99.90;;;;;;1940214;72;26932;-91
2024/04/02 19:21:00;;;;;;;1.83;1.53;;;0.90;99.90;;;;;;1925240;73;25228;-89
2024/04/02 19:23:54;;;;;;;2.13;1.60;;;0.90;99.90;;;;;;1927614;73;25647;-89
2024/04/02 19:26:44;;;;;;;1.80;1.47;;;0.90;99.90;;;;;;1914101;73;25289;-89
2024/04/02 19:45:57;;;;;;;1.60;1.50;;;0.70;99.90;;;;;;1947728;72;27026;-90
2024/04/02 19:51:43;;;;;;;3.40;1.30;;;0.80;99.90;;;;;;1943622;72;27059;-90
2024/04/02 20:36:36;;;;;;;1.93;1.57;;;0.40;99.90;;;;;;1966176;71;26988;-91
2024/04/02 20:39:26;;;;;;;2.57;1.30;;;0.40;99.90;;;;;;1925802;73;25160;-90
2024/04/02 20:42:15;;;;;;;0.93;0.80;;;0.40;99.90;;;;;;1907485;74;25797;-90
2024/04/02 20:45:05;;;;;;;1.87;1.43;;;0.40;99.90;;;;;;1919745;74;25140;-89
2024/04/02 20:48:13;;;;;;;1.23;1.13;;;0.30;99.90;;;;;;1911517;74;25193;-90
2024/04/02 20:51:07;;;;;;;0.90;0.90;;;0.40;99.90;;;;;;1860200;76;25177;-90
2024/04/02 20:53:56;;;;;;;1.10;1.03;;;0.30;99.90;;;;;;1913468;74;25241;-90
2024/04/02 20:56:44;;;;;;;1.63;1.40;;;0.30;99.90;;;;;;1918417;74;25218;-90
2024/04/02 20:59:36;;;;;;;1.90;1.50;;;0.30;99.90;;;;;;1907340;74;25280;-90
2024/04/02 21:02:33;;;;;;;1.37;1.27;;;0.30;99.90;;;;;;1904014;73;25255;-89
2024/04/02 21:05:24;;;;;;;2.43;1.40;;;0.40;99.90;;;;;;1920333;72;25227;-90
2024/04/02 21:08:25;;;;;;;2.77;1.00;;;0.40;99.90;;;;;;1907218;74;25267;-90
2024/04/02 21:11:14;;;;;;;2.10;1.73;;;0.30;99.90;;;;;;1917000;74;25221;-90
2024/04/02 21:14:04;;;;;;;1.40;1.30;;;0.30;99.90;;;;;;1915094;74;25284;-90
2024/04/02 21:16:54;;;;;;;1.97;1.40;;;0.20;99.90;;;;;;1927935;74;25313;-90
2024/04/02 21:19:45;;;;;;;2.07;1.60;;;0.20;99.90;;;;;;1917610;74;25753;-89
2024/04/02 21:22:34;;;;;;;2.83;0.97;;;0.20;99.90;;;;;;1909288;74;25285;-89
2024/04/02 21:25:23;;;;;;;2.50;1.80;;;0.20;99.90;;;;;;1919386;74;25614;-92
2024/04/02 21:28:13;;;;;;;1.67;1.57;;;0.20;99.90;;;;;;1916902;74;25269;-90
2024/04/02 21:31:05;;;;;;;2.07;1.40;;;0.20;99.90;;;;;;1947967;72;25228;-89
2024/04/02 21:48:07;;;;;;;1.37;1.27;;;0.20;99.90;;;;;;1915045;74;26314;-91
2024/04/02 21:54:15;;;;;;;1.40;1.30;;;0.20;99.90;;;;;;1919592;72;27033;-91
2024/04/02 21:57:04;;;;;;;1.30;1.20;;;0.00;99.90;;;;;;1965471;73;25313;-90
2024/04/02 21:59:56;;;;;;;1.77;1.43;;;0.00;99.90;;;;;;1954393;71;25187;-90
2024/04/02 22:02:45;;;;;;;1.37;1.27;;;0.00;99.90;;;;;;1973157;71;25177;-90
2024/04/02 22:05:34;;;;;;;3.00;1.70;;;0.00;99.90;;;;;;1968048;71;25306;-90
2024/04/02 22:08:22;;;;;;;1.73;1.50;;;0.00;99.90;;;;;;1948036;71;25210;-90
2024/04/02 22:11:16;;;;;;;2.10;1.50;;;-0.10;99.90;;;;;;1976286;72;25599;-90
2024/04/02 22:14:06;;;;;;;2.80;1.50;;;-0.10;99.90;;;;;;1966986;71;25214;-90
2024/04/02 22:16:55;;;;;;;2.27;1.60;;;-0.10;99.90;;;;;;1957827;71;25273;-90
2024/04/02 22:22:26;;;;;;;1.37;1.27;;;-0.20;99.90;;;;;;1912860;74;26718;-90
2024/04/02 22:28:39;;;;;;;1.83;1.50;;;-0.10;99.90;;;;;;1979793;71;26953;-90
2024/04/02 22:31:31;;;;;;;0.90;0.90;;;-0.10;99.90;;;;;;1974914;70;25329;-90
2024/04/02 22:34:23;;;;;;;5.30;1.30;;;-0.10;99.90;;;;;;1980666;71;25309;-89
2024/04/02 22:37:13;;;;;;;1.90;1.53;;;-0.20;99.90;;;;;;1967183;71;25252;-88
2024/04/02 22:40:09;;;;;;;1.57;1.47;;;-0.20;99.90;;;;;;1999522;71;25203;-88
2024/04/02 22:46:00;;;;;;;1.50;1.40;;;-0.20;99.90;;;;;;1947978;72;28367;-90
2024/04/02 22:48:50;;;;;;;1.13;1.00;;;-0.30;99.90;;;;;;1938449;73;25724;-89
2024/04/02 22:51:52;;;;;;;2.20;1.07;;;-0.20;99.90;;;;;;1916564;75;25316;-90
2024/04/02 22:54:48;;;;;;;2.50;1.47;;;-0.20;99.90;;;;;;1916552;75;25220;-89
2024/04/02 22:57:38;;;;;;;1.87;1.17;;;-0.30;99.90;;;;;;1947156;73;25320;-89
2024/04/02 23:00:27;;;;;;;2.07;1.27;;;-0.30;99.90;;;;;;1908801;73;25273;-90
2024/04/02 23:03:19;;;;;;;1.77;1.43;;;-0.30;99.90;;;;;;1908228;73;25270;-90
2024/04/02 23:06:19;;;;;;;2.17;1.37;;;-0.30;99.90;;;;;;1921850;73;25249;-90
2024/04/02 23:11:53;;;;;;;0.80;0.80;;;-0.30;99.90;;;;;;1944349;72;27080;-90
2024/04/02 23:14:46;;;;;;;1.97;1.10;;;-0.30;99.90;;;;;;1885851;75;25213;-90
2024/04/02 23:17:36;;;;;;;2.53;1.50;;;-0.40;99.90;;;;;;1902071;75;25248;-89
2024/04/02 23:20:26;;;;;;;1.40;1.30;;;-0.40;99.90;;;;;;1898242;75;25781;-91
2024/04/02 23:26:00;;;;;;;1.50;1.30;;;-0.40;99.90;;;;;;2013984;69;27020;-91
2024/04/02 23:28:49;;;;;;;1.57;1.30;;;-0.30;99.90;;;;;;1961006;71;25193;-89
2024/04/02 23:34:34;;;;;;;2.17;1.33;;;-0.50;99.90;;;;;;1968047;72;27042;-90
2024/04/02 23:40:46;;;;;;;2.30;1.60;;;-0.40;99.90;;;;;;1956429;72;27005;-90
2024/04/02 23:43:43;;;;;;;1.33;1.27;;;-0.50;99.90;;;;;;1911771;73;25360;-90
2024/04/02 23:49:36;;;;;;;1.50;1.40;;;-0.40;99.90;;;;;;1949686;72;27214;-90
2024/04/02 23:52:29;;;;;;;1.17;0.93;;;-0.50;99.90;;;;;;1926940;73;25252;-90
2024/04/02 23:55:19;;;;;;;1.53;1.43;;;-0.40;99.90;;;;;;1916377;73;26290;-89
2024/04/02 23:58:13;;;;;;;3.87;1.60;;;-0.50;99.90;;;;;;1916550;73;25275;-90
